KVEL

Details ICAO KVEL (VEL)
Name VERNAL
Region United States
Timezone America/Denver (UTC-6.0)
Plans Departing 4
Arriving 5
Stats Elevation 5,278 ft / 1,609 m (AMSL)
Location 40.441560° -109.509776°
Runways 2
Magnetic Variation 10.379° E
Sunrise 2018-05-20 11:58:41 UTC / 2018-05-20 05:58:41 Local
Sunset 2018-05-21 02:33:19 UTC / 2018-05-20 20:33:19 Local
Advertisement - Login to hide

Runways

ID Width Length Bearing (true) Bearing (mag) Surface Threshold Offset Overrun Length
07 60 ft / 18 m 4,098 ft / 1,249 m 89.26° 78.88° Asphalt 0 ft / 0 m 0 ft / 0 m
16 150 ft / 46 m 6,210 ft / 1,893 m 179.02° 168.64° Asphalt 0 ft / 0 m 0 ft / 0 m
25 60 ft / 18 m 4,098 ft / 1,249 m 269.27° 258.89° Asphalt 0 ft / 0 m 0 ft / 0 m
34 150 ft / 46 m 6,210 ft / 1,893 m 359.02° 348.64° Asphalt 0 ft / 0 m 0 ft / 0 m

Map

Weather


0- 5 10 15 20 25 30 35+ Temperature / ° C

Clouds and Precipitation
Forecast for 2018-05-21 00:00 UTC. Updated an hour ago

Ground ~20,000 ft ~40,000 ft Winds

METAR

KVEL 202353Z AUTO 26019G35KT 10SM FEW100 21/02 A2996 RMK AO2 PK WND 26035/2346 SLP102 T02060017 10250 20200 55002

TAF

KVEL 202329Z 2100/2124 VRB05KT P6SM SCT110 BKN150 FM210200 36007KT P6SM SCT070 BKN130 FM210800 32005KT P6SM FEW070 SCT250 FM211900 18005KT P6SM FEW250 FM212100 21008KT P6SM FEW110 SCT250

Frequencies

Recorded 135.17 MHz ASOS
Unicom 122.70 MHz CTAF/UNICOM
Warning: Do not use this data for real-world aviation or navigation. No guarantee of current accuracy is given.